Time;durP1;ratioP1;P1;durP2;ratioP2;P2;SDS_P1;SDS_P2;PMS_P1;PMS_P2;Temp;Humidity;BMP_temperature;BMP_pressure;BME280_temperature;BME280_humidity;BME280_pressure;Samples;Min_cycle;Max_cycle;Signal;HPM_P1;HPM_P2
2022/07/14 00:00:44;;;;;;;3.90;2.80;;;25.60;68.40;;;;;;4986407;28;20995;-66
2022/07/14 00:03:11;;;;;;;2.90;2.57;;;25.60;68.60;;;;;;4990950;28;20633;-66
2022/07/14 00:05:37;;;;;;;2.47;2.37;;;25.60;68.90;;;;;;4991833;28;20725;-65
2022/07/14 00:08:04;;;;;;;2.60;2.40;;;25.50;69.10;;;;;;4991544;28;20741;-65
2022/07/14 00:10:31;;;;;;;3.87;2.67;;;25.50;69.20;;;;;;4987866;28;20692;-66
2022/07/14 00:12:59;;;;;;;2.73;2.53;;;25.50;69.20;;;;;;4987841;28;20754;-64
2022/07/14 00:15:25;;;;;;;6.50;2.77;;;25.50;69.60;;;;;;4991224;28;21168;-65
2022/07/14 00:17:52;;;;;;;2.63;2.43;;;25.50;70.70;;;;;;4989326;28;20709;-66
2022/07/14 00:20:19;;;;;;;3.03;2.87;;;25.50;70.10;;;;;;4989469;28;20607;-65
2022/07/14 00:22:46;;;;;;;2.90;2.70;;;25.50;70.40;;;;;;4991631;28;21075;-65
2022/07/14 00:25:13;;;;;;;4.30;3.03;;;25.40;70.50;;;;;;4992819;28;20731;-65
2022/07/14 00:27:40;;;;;;;3.20;2.97;;;25.40;70.30;;;;;;4992563;28;20633;-65
2022/07/14 00:30:07;;;;;;;2.57;2.37;;;25.40;70.70;;;;;;4987992;28;20650;-65
2022/07/14 00:32:35;;;;;;;6.00;3.20;;;25.40;71.10;;;;;;4991554;28;20607;-65
2022/07/14 00:35:04;;;;;;;4.07;2.83;;;25.30;71.50;;;;;;4988990;28;20735;-65
2022/07/14 00:37:31;;;;;;;4.07;3.20;;;25.30;71.40;;;;;;4988634;28;20661;-65
2022/07/14 00:40:00;;;;;;;3.47;3.20;;;25.30;71.70;;;;;;4988953;28;20946;-65
2022/07/14 00:42:28;;;;;;;7.60;3.07;;;25.30;71.60;;;;;;4991276;28;20597;-65
2022/07/14 00:44:54;;;;;;;8.90;4.30;;;25.30;72.40;;;;;;4987716;28;21216;-65
2022/07/14 00:47:21;;;;;;;3.17;2.90;;;25.20;72.30;;;;;;4991221;28;21085;-65
2022/07/14 00:49:52;;;;;;;3.27;2.97;;;25.30;72.30;;;;;;4989365;28;21214;-65
2022/07/14 00:52:19;;;;;;;2.90;2.70;;;25.40;72.10;;;;;;4990121;28;20623;-65
2022/07/14 00:54:46;;;;;;;3.00;2.80;;;25.20;72.90;;;;;;4990704;28;20618;-65
2022/07/14 00:57:13;;;;;;;3.60;3.40;;;25.10;73.30;;;;;;4986211;28;20676;-65
2022/07/14 00:59:40;;;;;;;3.30;3.10;;;25.10;73.20;;;;;;4987791;28;20771;-65
2022/07/14 01:02:06;;;;;;;3.10;2.90;;;25.10;73.20;;;;;;4988573;28;20665;-65
2022/07/14 01:04:33;;;;;;;4.47;3.30;;;25.10;73.50;;;;;;4990753;28;20623;-65
2022/07/14 01:07:00;;;;;;;5.67;2.90;;;25.00;74.20;;;;;;4991017;28;20637;-65
2022/07/14 01:09:27;;;;;;;3.50;3.20;;;25.00;74.60;;;;;;4988150;28;20669;-65
2022/07/14 01:11:54;;;;;;;3.10;2.90;;;25.00;74.30;;;;;;4990727;28;20640;-65
2022/07/14 01:14:21;;;;;;;3.20;3.00;;;25.00;74.20;;;;;;4979122;28;20646;-65
2022/07/14 01:16:53;;;;;;;3.27;3.00;;;25.10;74.20;;;;;;4986695;28;20654;-65
2022/07/14 01:19:21;;;;;;;3.17;2.97;;;24.90;75.20;;;;;;4977504;28;20686;-64
2022/07/14 01:21:52;;;;;;;3.47;3.10;;;24.80;75.80;;;;;;4981153;28;20819;-65
2022/07/14 01:24:18;;;;;;;3.77;3.47;;;24.80;75.80;;;;;;4988097;28;21147;-65
2022/07/14 01:26:45;;;;;;;3.13;2.90;;;24.80;75.90;;;;;;4988514;28;21207;-63
2022/07/14 01:29:12;;;;;;;3.00;2.73;;;24.80;76.30;;;;;;4980732;28;20673;-65
2022/07/14 01:31:39;;;;;;;3.07;2.87;;;24.70;76.80;;;;;;4989654;28;20623;-63
2022/07/14 01:34:06;;;;;;;3.47;3.17;;;24.60;77.40;;;;;;4987909;28;20992;-66
2022/07/14 01:36:33;;;;;;;3.50;3.30;;;24.60;77.80;;;;;;4988212;28;20746;-65
2022/07/14 01:39:00;;;;;;;3.67;3.00;;;24.60;78.00;;;;;;4988783;28;21246;-65
2022/07/14 01:41:27;;;;;;;3.83;3.53;;;24.60;78.10;;;;;;4987063;28;20726;-65
2022/07/14 01:43:54;;;;;;;3.10;2.80;;;24.60;78.30;;;;;;4991278;28;20610;-66
2022/07/14 01:46:21;;;;;;;3.30;2.93;;;24.50;78.80;;;;;;4990443;28;20615;-65
2022/07/14 01:48:48;;;;;;;3.40;3.10;;;24.50;79.80;;;;;;4990675;28;20682;-65
2022/07/14 01:51:16;;;;;;;3.20;3.00;;;24.40;79.80;;;;;;4987611;28;20649;-65
2022/07/14 01:53:42;;;;;;;3.33;2.93;;;24.40;80.20;;;;;;4988925;28;20732;-66
2022/07/14 01:56:11;;;;;;;3.50;3.20;;;24.40;80.70;;;;;;4989801;28;20598;-65
2022/07/14 01:58:38;;;;;;;5.00;3.87;;;24.30;81.00;;;;;;4993383;28;20748;-64
2022/07/14 02:04:01;;;;;;;3.17;2.90;;;24.20;81.80;;;;;;4996334;28;20623;-65
2022/07/14 02:06:29;;;;;;;4.10;3.60;;;24.20;82.10;;;;;;4992336;28;20650;-65
2022/07/14 02:08:59;;;;;;;8.90;3.03;;;24.10;82.60;;;;;;4984274;28;20678;-65
2022/07/14 02:14:12;;;;;;;3.57;3.07;;;24.10;83.20;;;;;;4994075;28;20706;-65
2022/07/14 02:16:38;;;;;;;4.23;3.43;;;24.10;83.80;;;;;;4992821;28;20629;-65
2022/07/14 02:19:05;;;;;;;3.73;3.47;;;24.00;84.40;;;;;;4992144;28;20678;-65
2022/07/14 02:21:32;;;;;;;3.87;3.33;;;23.90;84.80;;;;;;4994217;28;20645;-65
2022/07/14 02:23:59;;;;;;;3.10;2.90;;;23.90;85.20;;;;;;4989861;28;20657;-65
2022/07/14 02:26:27;;;;;;;3.13;2.93;;;23.90;85.60;;;;;;4993675;28;21004;-65
2022/07/14 02:28:54;;;;;;;4.20;3.33;;;23.80;86.00;;;;;;4990878;28;20638;-65
2022/07/14 02:31:20;;;;;;;3.20;3.00;;;23.80;86.50;;;;;;4993684;28;20609;-65
2022/07/14 02:33:47;;;;;;;3.60;3.40;;;23.80;86.90;;;;;;4992474;28;20647;-65
2022/07/14 02:36:14;;;;;;;3.60;3.23;;;23.80;87.20;;;;;;4993415;28;20638;-65
2022/07/14 02:38:43;;;;;;;2.90;2.80;;;23.70;87.50;;;;;;4992267;28;20704;-65
2022/07/14 02:41:10;;;;;;;2.90;2.70;;;23.60;87.90;;;;;;4991700;28;20717;-65
2022/07/14 02:43:37;;;;;;;3.60;3.30;;;23.60;88.50;;;;;;4992133;28;20642;-65
2022/07/14 02:46:04;;;;;;;3.57;3.30;;;23.60;88.80;;;;;;4993187;28;20618;-65
2022/07/14 02:48:31;;;;;;;3.87;3.57;;;23.50;89.10;;;;;;4990224;28;20725;-65
2022/07/14 02:51:04;;;;;;;3.43;3.23;;;23.60;89.40;;;;;;4993713;28;20603;-65
2022/07/14 02:53:32;;;;;;;3.43;3.17;;;23.50;89.90;;;;;;4991887;28;21144;-65
2022/07/14 02:56:03;;;;;;;3.43;3.23;;;23.50;90.00;;;;;;4992959;28;21262;-65
2022/07/14 02:58:30;;;;;;;6.97;3.33;;;23.50;90.10;;;;;;4990056;28;20678;-64
2022/07/14 03:00:57;;;;;;;3.53;3.20;;;23.50;90.20;;;;;;4993678;28;20714;-65
2022/07/14 03:03:25;;;;;;;3.50;3.20;;;23.40;90.40;;;;;;4992565;28;20705;-65
2022/07/14 03:05:51;;;;;;;3.20;3.00;;;23.40;90.50;;;;;;4991685;28;20630;-65
2022/07/14 03:08:18;;;;;;;3.70;3.47;;;23.30;90.70;;;;;;4990600;28;21289;-65
2022/07/14 03:10:45;;;;;;;3.70;3.40;;;23.30;90.90;;;;;;4990762;28;20660;-65
2022/07/14 03:13:12;;;;;;;4.47;3.20;;;23.30;90.90;;;;;;4992717;28;20788;-65
2022/07/14 03:15:38;;;;;;;4.67;3.80;;;23.20;91.20;;;;;;4992782;28;20715;-65
2022/07/14 03:18:05;;;;;;;4.43;3.40;;;23.20;91.30;;;;;;4990552;28;20678;-65
2022/07/14 03:20:32;;;;;;;6.97;3.30;;;23.30;91.40;;;;;;4992230;28;20631;-65
2022/07/14 03:22:59;;;;;;;3.30;3.10;;;23.20;91.50;;;;;;4991282;28;20642;-65
2022/07/14 03:25:25;;;;;;;5.33;3.47;;;23.20;91.40;;;;;;4993460;28;20587;-65
2022/07/14 03:27:53;;;;;;;3.63;3.43;;;23.10;91.70;;;;;;4992879;28;20713;-65
2022/07/14 03:30:20;;;;;;;3.60;3.40;;;23.10;91.90;;;;;;4990141;28;20638;-65
2022/07/14 03:32:47;;;;;;;6.10;3.27;;;23.00;92.10;;;;;;4992499;28;20599;-65
2022/07/14 03:35:14;;;;;;;3.73;3.40;;;23.00;92.20;;;;;;4990920;28;21260;-65
2022/07/14 03:37:40;;;;;;;3.83;3.43;;;23.00;92.40;;;;;;4992269;28;20658;-65
2022/07/14 03:40:08;;;;;;;3.07;2.87;;;23.00;92.60;;;;;;4990720;28;20603;-65
2022/07/14 03:42:35;;;;;;;3.47;3.17;;;23.00;92.80;;;;;;4991067;28;20635;-65
2022/07/14 03:45:02;;;;;;;3.53;3.17;;;23.00;92.90;;;;;;4988630;28;20629;-65
2022/07/14 03:47:29;;;;;;;4.50;3.47;;;22.90;93.10;;;;;;4992179;28;20626;-65
2022/07/14 03:49:56;;;;;;;3.33;3.13;;;22.90;93.40;;;;;;4989625;28;20673;-65
2022/07/14 03:52:23;;;;;;;7.10;3.40;;;22.80;93.50;;;;;;4990269;28;20664;-65
2022/07/14 03:54:49;;;;;;;3.57;3.27;;;22.80;93.70;;;;;;4990293;28;20623;-65
2022/07/14 03:57:16;;;;;;;4.10;3.10;;;22.80;94.00;;;;;;4992326;28;20706;-65
2022/07/14 03:59:43;;;;;;;4.00;3.70;;;22.70;94.20;;;;;;4989139;28;20678;-65
2022/07/14 04:02:11;;;;;;;3.70;3.40;;;22.70;94.60;;;;;;4990788;28;21155;-65
2022/07/14 04:04:39;;;;;;;4.30;3.50;;;22.70;94.70;;;;;;4989400;28;20604;-65
2022/07/14 04:07:07;;;;;;;6.43;3.70;;;22.70;94.80;;;;;;4987527;28;20654;-65
2022/07/14 04:09:34;;;;;;;3.33;3.03;;;22.70;94.80;;;;;;4989723;28;20745;-65
2022/07/14 04:12:01;;;;;;;3.17;2.97;;;22.80;94.90;;;;;;4989651;28;20716;-65
2022/07/14 04:14:28;;;;;;;4.23;3.10;;;22.80;94.80;;;;;;4991137;28;20637;-65
2022/07/14 04:16:55;;;;;;;4.43;3.30;;;22.80;94.80;;;;;;4989765;28;20654;-66
2022/07/14 04:19:22;;;;;;;3.87;3.50;;;23.00;94.80;;;;;;4986444;28;21270;-65
2022/07/14 04:21:49;;;;;;;2.80;2.60;;;23.20;94.50;;;;;;4991198;28;20629;-65
2022/07/14 04:24:19;;;;;;;3.40;3.20;;;23.30;94.10;;;;;;4988394;28;20619;-65
2022/07/14 04:26:46;;;;;;;5.57;3.50;;;23.50;93.90;;;;;;4988671;28;20662;-64
2022/07/14 04:29:13;;;;;;;3.63;3.33;;;23.60;93.60;;;;;;4986923;28;20670;-65
2022/07/14 04:31:40;;;;;;;3.90;3.13;;;23.70;93.30;;;;;;4991754;28;20621;-64
2022/07/14 04:34:07;;;;;;;8.50;3.87;;;23.70;93.10;;;;;;4991634;28;20618;-64
2022/07/14 04:36:33;;;;;;;3.57;3.27;;;23.70;93.10;;;;;;4990676;28;20946;-64
2022/07/14 04:39:00;;;;;;;3.63;3.30;;;23.80;93.10;;;;;;4988579;28;20675;-64
2022/07/14 04:41:27;;;;;;;5.57;3.67;;;24.10;92.70;;;;;;4989245;28;20661;-64
2022/07/14 04:43:54;;;;;;;3.97;3.63;;;24.40;92.40;;;;;;4982294;28;21142;-64
2022/07/14 04:46:21;;;;;;;3.87;3.57;;;24.70;91.80;;;;;;4990890;28;20618;-64
2022/07/14 04:54:19;;;;;;;3.93;3.63;;;24.70;91.20;;;;;;4987178;28;20663;-64
2022/07/14 04:56:46;;;;;;;3.93;3.63;;;24.60;91.30;;;;;;4990396;28;20631;-64
2022/07/14 04:59:26;;;;;;;6.60;4.43;;;24.70;91.30;;;;;;4987785;28;21307;-65
2022/07/14 05:01:53;;;;;;;4.87;3.90;;;24.80;91.40;;;;;;4988729;28;20697;-64
2022/07/14 05:04:20;;;;;;;4.60;4.20;;;24.80;91.10;;;;;;4990518;28;20615;-64
2022/07/14 05:06:49;;;;;;;4.07;3.80;;;24.90;90.80;;;;;;4987607;28;20734;-63
2022/07/14 05:09:18;;;;;;;3.60;3.30;;;25.00;90.50;;;;;;4988116;28;21539;-64
2022/07/14 05:11:45;;;;;;;3.70;3.20;;;25.00;90.30;;;;;;4990159;28;20789;-64
2022/07/14 05:14:12;;;;;;;4.60;3.03;;;25.00;90.40;;;;;;4990544;28;20718;-64
2022/07/14 05:16:39;;;;;;;6.10;3.90;;;25.00;90.20;;;;;;4991814;28;20629;-64
2022/07/14 05:19:26;;;;;;;3.53;3.23;;;24.90;90.40;;;;;;4987971;28;20693;-64
2022/07/14 05:21:53;;;;;;;3.30;3.10;;;24.80;90.20;;;;;;4990382;28;20606;-65
2022/07/14 05:24:20;;;;;;;3.27;3.07;;;24.80;90.30;;;;;;4972346;28;20739;-65
2022/07/14 05:26:46;;;;;;;3.87;3.50;;;24.80;90.30;;;;;;4971118;28;20599;-64
2022/07/14 05:29:17;;;;;;;4.63;3.10;;;24.80;90.20;;;;;;4980693;28;20669;-63
2022/07/14 05:31:44;;;;;;;3.60;3.30;;;24.60;90.20;;;;;;4988827;28;20642;-64
2022/07/14 05:34:10;;;;;;;4.83;3.77;;;24.60;90.40;;;;;;4989576;28;21189;-65
2022/07/14 05:36:37;;;;;;;3.17;2.87;;;24.50;90.60;;;;;;4986849;28;20642;-64
2022/07/14 05:39:04;;;;;;;6.93;3.93;;;24.50;90.70;;;;;;4996291;23;21056;-68
2022/07/14 05:41:31;;;;;;;7.13;3.60;;;24.40;90.80;;;;;;5023396;28;21455;-64
2022/07/14 05:43:58;;;;;;;3.50;3.20;;;24.50;90.80;;;;;;5029112;28;20698;-67
2022/07/14 05:46:25;;;;;;;4.93;4.03;;;24.60;90.80;;;;;;5011722;28;20639;-67
2022/07/14 05:48:51;;;;;;;3.90;3.57;;;24.70;90.60;;;;;;5028649;28;20715;-67
2022/07/14 05:51:20;;;;;;;4.20;3.53;;;24.90;90.30;;;;;;5028067;28;20645;-68
2022/07/14 05:53:47;;;;;;;8.87;4.70;;;25.20;90.00;;;;;;5027896;28;20645;-68
2022/07/14 05:56:16;;;;;;;4.93;3.37;;;25.40;89.50;;;;;;5029635;28;20696;-67
2022/07/14 05:58:45;;;;;;;7.37;4.30;;;25.70;89.20;;;;;;5028002;28;20673;-66
2022/07/14 06:01:13;;;;;;;6.03;4.10;;;25.90;88.70;;;;;;5027751;28;20625;-68
2022/07/14 06:03:40;;;;;;;4.77;3.67;;;26.20;87.60;;;;;;5030143;28;20712;-67
2022/07/14 06:06:08;;;;;;;9.27;4.30;;;26.60;86.20;;;;;;5015391;28;20633;-67
2022/07/14 06:08:36;;;;;;;4.00;3.47;;;26.90;84.90;;;;;;5009187;28;20993;-68
2022/07/14 06:11:03;;;;;;;6.60;4.60;;;27.30;83.90;;;;;;5023605;28;20659;-67
2022/07/14 06:13:31;;;;;;;6.17;4.47;;;27.40;82.40;;;;;;5029708;28;20623;-65
2022/07/14 06:15:59;;;;;;;8.00;4.10;;;27.70;81.60;;;;;;5028121;28;20632;-68
2022/07/14 06:18:27;;;;;;;3.90;3.60;;;28.20;80.70;;;;;;5027930;28;20743;-67
2022/07/14 06:20:54;;;;;;;5.57;3.30;;;28.80;78.70;;;;;;5029729;28;21194;-67
2022/07/14 06:23:21;;;;;;;7.33;3.87;;;29.20;77.40;;;;;;5028344;28;20735;-68
2022/07/14 06:25:48;;;;;;;4.07;3.47;;;29.50;75.90;;;;;;5030790;28;20627;-68
2022/07/14 06:28:15;;;;;;;4.40;4.00;;;29.60;74.20;;;;;;5027721;28;20740;-68
2022/07/14 06:30:42;;;;;;;7.27;3.60;;;29.40;73.30;;;;;;5028225;28;20664;-68
2022/07/14 06:33:09;;;;;;;4.80;3.90;;;29.50;73.50;;;;;;5028435;28;20652;-68
2022/07/14 06:35:40;;;;;;;3.40;3.17;;;29.70;73.10;;;;;;5030262;28;20585;-66
2022/07/14 06:38:27;;;;;;;7.43;3.23;;;29.90;72.60;;;;;;5029076;28;20637;-67
2022/07/14 06:40:53;;;;;;;4.47;3.60;;;30.10;71.40;;;;;;5030492;28;20629;-67
2022/07/14 06:43:22;;;;;;;6.40;3.40;;;32.00;68.80;;;;;;5031691;28;21221;-68
2022/07/14 06:45:49;;;;;;;3.50;3.20;;;33.30;63.90;;;;;;5033967;28;20996;-68
2022/07/14 06:48:15;;;;;;;4.53;2.87;;;33.60;62.00;;;;;;5033946;28;20616;-67
2022/07/14 06:50:42;;;;;;;2.60;2.50;;;33.50;61.30;;;;;;4949754;28;20690;-68
2022/07/14 06:53:09;;;;;;;3.47;3.17;;;33.10;61.00;;;;;;5031309;28;20750;-69
2022/07/14 06:55:36;;;;;;;3.07;2.90;;;32.60;61.80;;;;;;5014507;28;20640;-64
2022/07/14 06:58:03;;;;;;;2.60;2.50;;;32.50;61.50;;;;;;5014705;28;20613;-68
2022/07/14 07:00:30;;;;;;;4.70;2.67;;;32.30;61.50;;;;;;5031656;28;20669;-69
2022/07/14 07:02:57;;;;;;;2.53;2.43;;;31.80;62.10;;;;;;5032645;28;20617;-69
2022/07/14 07:08:09;;;;;;;2.40;2.30;;;32.30;61.60;;;;;;5029308;28;21515;-69
2022/07/14 07:10:42;;;;;;;2.80;2.70;;;34.80;57.90;;;;;;5032797;28;20716;-68
2022/07/14 07:13:09;;;;;;;3.00;2.80;;;37.30;54.70;;;;;;5031045;28;20620;-69
2022/07/14 07:15:37;;;;;;;3.40;2.97;;;39.50;50.60;;;;;;5031386;28;20632;-67
2022/07/14 07:18:06;;;;;;;2.30;2.20;;;40.40;47.90;;;;;;5030858;28;20687;-69
2022/07/14 07:20:36;;;;;;;2.67;2.47;;;40.10;46.60;;;;;;5031286;28;20712;-71
2022/07/14 07:23:04;;;;;;;4.50;2.60;;;38.60;47.60;;;;;;5021799;28;20996;-66
2022/07/14 07:25:31;;;;;;;2.40;2.30;;;36.70;49.10;;;;;;5026645;28;20616;-69
2022/07/14 07:28:01;;;;;;;3.10;2.90;;;35.10;50.80;;;;;;5028958;28;20707;-70
2022/07/14 07:30:28;;;;;;;7.03;2.73;;;33.80;53.10;;;;;;5011608;28;20633;-66
2022/07/14 07:32:56;;;;;;;2.60;2.40;;;32.90;54.60;;;;;;5032830;28;21128;-70
2022/07/14 07:35:23;;;;;;;3.10;3.00;;;32.30;55.70;;;;;;5030864;28;21018;-67
2022/07/14 07:37:50;;;;;;;3.00;2.80;;;31.70;56.70;;;;;;5030767;28;20616;-69
2022/07/14 07:40:17;;;;;;;3.00;2.80;;;31.10;58.00;;;;;;5029182;28;20780;-70
2022/07/14 07:42:44;;;;;;;5.03;2.80;;;30.90;58.90;;;;;;5023193;28;21199;-70
2022/07/14 07:45:11;;;;;;;3.77;2.70;;;31.20;59.20;;;;;;5027493;28;20617;-70
2022/07/14 07:47:38;;;;;;;2.13;2.03;;;32.10;57.90;;;;;;5031269;28;20617;-66
2022/07/14 07:50:06;;;;;;;2.97;2.80;;;33.10;56.70;;;;;;5029109;28;20665;-69
2022/07/14 07:52:33;;;;;;;2.47;2.37;;;34.00;55.40;;;;;;5007354;28;20620;-69
2022/07/14 07:55:00;;;;;;;3.47;2.77;;;35.80;53.20;;;;;;5030171;28;21207;-70
2022/07/14 07:57:45;;;;;;;2.50;2.40;;;38.50;50.40;;;;;;5014187;28;20652;-70
2022/07/14 08:00:13;;;;;;;4.07;2.80;;;41.40;47.10;;;;;;5002058;28;20772;-71
2022/07/14 08:02:45;;;;;;;2.60;2.50;;;42.80;44.90;;;;;;5031801;28;20596;-71
2022/07/14 08:05:12;;;;;;;2.93;2.83;;;43.90;43.40;;;;;;5029695;28;20992;-70
2022/07/14 08:07:59;;;;;;;2.67;2.53;;;42.60;42.90;;;;;;5031065;28;20613;-72
2022/07/14 08:10:26;;;;;;;2.87;2.67;;;42.40;43.40;;;;;;5030016;28;21223;-70
2022/07/14 08:12:53;;;;;;;3.10;2.80;;;42.30;43.30;;;;;;5030885;28;20628;-70
2022/07/14 08:15:20;;;;;;;3.60;3.30;;;41.70;43.70;;;;;;5028491;28;20739;-70
2022/07/14 08:17:47;;;;;;;2.87;2.60;;;41.50;43.90;;;;;;5028849;28;20621;-69
2022/07/14 08:20:14;;;;;;;2.33;2.23;;;42.20;43.20;;;;;;5027361;28;20677;-68
2022/07/14 08:22:40;;;;;;;2.73;2.23;;;42.20;43.10;;;;;;5029851;28;20601;-68
2022/07/14 08:25:08;;;;;;;2.80;2.70;;;43.40;42.20;;;;;;5031263;28;20628;-68
2022/07/14 08:27:37;;;;;;;2.53;2.40;;;44.30;41.40;;;;;;5029928;28;21172;-66
2022/07/14 08:30:05;;;;;;;3.00;2.80;;;45.50;40.40;;;;;;5028795;28;20637;-67
2022/07/14 08:32:47;;;;;;;3.00;2.90;;;46.40;39.80;;;;;;5022196;28;20619;-64
2022/07/14 08:35:16;;;;;;;3.10;2.90;;;45.70;39.20;;;;;;5024470;28;21221;-68
2022/07/14 08:37:43;;;;;;;6.43;3.10;;;45.20;39.40;;;;;;5031000;28;20614;-68
2022/07/14 08:40:15;;;;;;;2.80;2.70;;;45.20;40.40;;;;;;5037888;28;20675;-68
2022/07/14 08:42:44;;;;;;;3.10;2.80;;;44.90;39.50;;;;;;5021956;28;20621;-67
2022/07/14 08:45:13;;;;;;;3.20;3.10;;;45.00;39.70;;;;;;5009626;28;20656;-68
2022/07/14 08:47:41;;;;;;;3.20;3.10;;;44.00;39.90;;;;;;5018763;28;20654;-69
2022/07/14 08:50:19;;;;;;;2.93;2.73;;;42.40;41.10;;;;;;5020916;28;20673;-68
2022/07/14 08:52:48;;;;;;;2.73;2.63;;;43.60;40.50;;;;;;5028724;28;20636;-69
2022/07/14 08:55:18;;;;;;;3.17;2.90;;;44.60;40.10;;;;;;5030301;28;20651;-68
2022/07/14 08:57:45;;;;;;;2.57;2.47;;;46.40;39.00;;;;;;5028680;28;21212;-68
2022/07/14 09:00:15;;;;;;;2.77;2.67;;;47.40;38.10;;;;;;5011837;28;20677;-68
2022/07/14 09:02:51;;;;;;;3.10;2.90;;;48.50;37.30;;;;;;5027827;28;20691;-68
2022/07/14 09:05:42;;;;;;;2.63;2.53;;;49.60;36.40;;;;;;5028582;28;20612;-66
2022/07/14 09:08:11;;;;;;;6.03;2.77;;;50.30;35.90;;;;;;5010930;28;20624;-68
2022/07/14 09:10:40;;;;;;;3.07;2.93;;;50.60;35.80;;;;;;5028832;28;21035;-70
2022/07/14 09:13:28;;;;;;;2.80;2.70;;;50.80;35.40;;;;;;5029562;28;21199;-69
2022/07/14 09:16:20;;;;;;;3.10;2.70;;;51.30;34.90;;;;;;5011303;28;20726;-68
2022/07/14 09:19:02;;;;;;;3.00;2.90;;;51.40;34.70;;;;;;5028022;28;20644;-68
2022/07/14 09:21:29;;;;;;;4.67;2.87;;;52.00;34.30;;;;;;5030717;28;20635;-64
2022/07/14 09:23:58;;;;;;;3.00;2.80;;;52.20;33.90;;;;;;5027879;28;20643;-66
2022/07/14 09:26:52;;;;;;;2.70;2.57;;;53.00;33.30;;;;;;5022233;28;20608;-69
2022/07/14 09:29:23;;;;;;;3.10;2.90;;;52.30;33.50;;;;;;5021904;28;20670;-70
2022/07/14 09:31:50;;;;;;;2.30;2.30;;;52.80;33.70;;;;;;5020437;28;21048;-69
2022/07/14 09:34:27;;;;;;;2.50;2.40;;;52.20;33.40;;;;;;5026148;28;20212;-69
2022/07/14 09:37:13;;;;;;;4.50;3.00;;;52.80;33.00;;;;;;5037980;28;20613;-69
2022/07/14 09:39:57;;;;;;;2.20;2.20;;;53.90;32.70;;;;;;5027411;28;21020;-67
2022/07/14 09:42:45;;;;;;;2.87;2.77;;;54.80;32.90;;;;;;5028410;28;20578;-69
2022/07/14 09:45:14;;;;;;;2.85;2.75;;;55.20;31.90;;;;;;5029975;28;20229;-70
2022/07/14 09:48:07;;;;;;;2.80;2.70;;;55.10;31.90;;;;;;5027464;28;21002;-68
2022/07/14 09:50:46;;;;;;;3.80;2.70;;;54.00;31.70;;;;;;5020527;28;20229;-69
2022/07/14 09:53:18;;;;;;;3.17;2.97;;;53.50;32.00;;;;;;5028178;28;20240;-69
2022/07/14 09:55:50;;;;;;;3.50;2.80;;;51.90;33.00;;;;;;5029114;28;20206;-68
2022/07/14 09:58:16;;;;;;;3.13;2.97;;;50.60;34.20;;;;;;5028412;28;20631;-68
2022/07/14 10:00:59;;;;;;;2.90;2.80;;;48.50;34.00;;;;;;5013265;28;20679;-70
2022/07/14 10:03:28;;;;;;;3.00;2.90;;;46.90;35.10;;;;;;5021506;28;20632;-70
2022/07/14 10:05:56;;;;;;;3.60;3.17;;;45.20;36.10;;;;;;5022236;28;20636;-69
2022/07/14 10:08:46;;;;;;;3.70;3.43;;;43.50;37.30;;;;;;5020593;28;21276;-69
2022/07/14 10:11:13;;;;;;;3.53;3.33;;;42.00;38.50;;;;;;5029008;28;20606;-68
2022/07/14 10:13:40;;;;;;;3.20;2.90;;;43.10;38.10;;;;;;5029020;28;21026;-68
2022/07/14 10:16:07;;;;;;;3.07;2.97;;;43.70;37.20;;;;;;5029365;28;21180;-68
2022/07/14 10:18:35;;;;;;;2.77;2.67;;;43.70;37.70;;;;;;5027071;28;20675;-68
2022/07/14 10:21:04;;;;;;;3.50;3.20;;;43.50;37.80;;;;;;5029758;28;20668;-68
2022/07/14 10:23:32;;;;;;;3.53;3.33;;;43.70;38.10;;;;;;5031444;28;20928;-70
2022/07/14 10:25:59;;;;;;;6.20;3.20;;;43.10;38.60;;;;;;5015424;28;21040;-69
2022/07/14 10:28:26;;;;;;;3.13;3.03;;;41.80;39.70;;;;;;5032797;28;20633;-66
2022/07/14 10:31:29;;;;;;;3.20;3.10;;;40.40;40.10;;;;;;5032055;28;21007;-68
2022/07/14 10:34:34;;;;;;;3.77;3.57;;;39.20;41.10;;;;;;5032020;28;20635;-67
2022/07/14 10:37:07;;;;;;;3.37;3.10;;;37.80;42.30;;;;;;5029932;28;20763;-68
2022/07/14 10:39:53;;;;;;;3.40;3.17;;;36.30;44.30;;;;;;5031783;28;20732;-69
2022/07/14 10:42:34;;;;;;;3.70;3.43;;;35.90;45.00;;;;;;5031072;28;20638;-68
2022/07/14 10:45:02;;;;;;;3.30;3.13;;;35.50;45.60;;;;;;5033632;28;20632;-68
2022/07/14 10:47:48;;;;;;;3.30;3.20;;;35.00;46.10;;;;;;5031163;28;21169;-68
2022/07/14 10:50:26;;;;;;;6.93;3.20;;;34.60;46.90;;;;;;5026376;28;20676;-69
2022/07/14 10:53:05;;;;;;;3.90;3.70;;;34.00;47.60;;;;;;5022142;28;20633;-68
2022/07/14 10:55:36;;;;;;;4.63;3.60;;;33.80;48.20;;;;;;5031029;28;20739;-68
2022/07/14 10:58:06;;;;;;;3.20;3.00;;;33.30;48.60;;;;;;5022133;28;20696;-68
2022/07/14 11:03:23;;;;;;;3.67;3.40;;;33.20;48.90;;;;;;5024447;28;20663;-67
2022/07/14 11:06:07;;;;;;;4.00;3.70;;;32.90;49.50;;;;;;5013771;28;20637;-70
2022/07/14 11:09:17;;;;;;;4.00;3.53;;;32.80;49.90;;;;;;5027476;28;20663;-68
2022/07/14 11:12:10;;;;;;;3.93;3.60;;;32.80;49.80;;;;;;5028096;28;20649;-69
2022/07/14 11:14:41;;;;;;;4.20;3.90;;;33.10;49.50;;;;;;5033573;28;20609;-68
2022/07/14 11:17:39;;;;;;;3.47;3.27;;;33.00;49.70;;;;;;5033552;28;20625;-68
2022/07/14 11:20:08;;;;;;;3.70;3.40;;;32.80;50.00;;;;;;5032671;28;21227;-68
2022/07/14 11:22:36;;;;;;;4.10;3.30;;;32.60;50.30;;;;;;5002739;28;20643;-68
2022/07/14 11:25:04;;;;;;;7.93;4.00;;;32.70;50.40;;;;;;5032324;28;21008;-68
2022/07/14 11:27:35;;;;;;;10.80;7.03;;;32.90;50.40;;;;;;5032851;28;20991;-68
2022/07/14 11:30:21;;;;;;;5.30;4.80;;;33.10;50.50;;;;;;5031753;28;20637;-67
2022/07/14 11:33:07;;;;;;;4.60;4.20;;;32.80;50.20;;;;;;5029468;28;20639;-66
2022/07/14 11:41:05;;;;;;;3.80;3.50;;;32.40;50.80;;;;;;5000784;28;20744;-64
2022/07/14 11:43:32;;;;;;;9.63;3.80;;;32.40;51.00;;;;;;5012732;28;20622;-64
2022/07/14 11:46:07;;;;;;;3.90;3.50;;;32.30;51.00;;;;;;5012660;28;20724;-64
2022/07/14 11:48:37;;;;;;;4.03;3.80;;;32.00;51.60;;;;;;5011379;28;20623;-65
2022/07/14 11:51:06;;;;;;;3.90;3.60;;;31.70;52.40;;;;;;4992940;28;20627;-66
2022/07/14 11:53:34;;;;;;;3.27;3.07;;;31.70;52.00;;;;;;4993242;28;20713;-64
2022/07/14 11:56:03;;;;;;;8.13;3.57;;;31.70;52.80;;;;;;4974987;28;20645;-65
2022/07/14 11:58:31;;;;;;;4.43;4.03;;;31.80;53.00;;;;;;4992622;28;20631;-65
2022/07/14 12:00:59;;;;;;;4.40;4.07;;;31.80;52.40;;;;;;4992806;28;21321;-65
2022/07/14 12:03:27;;;;;;;4.00;3.70;;;32.00;52.00;;;;;;4978616;28;20729;-65
2022/07/14 12:05:58;;;;;;;4.53;4.07;;;32.20;51.20;;;;;;4991601;28;20627;-64
2022/07/14 12:08:32;;;;;;;4.57;4.27;;;32.50;50.90;;;;;;4992406;28;20630;-65
2022/07/14 12:11:17;;;;;;;3.83;3.60;;;32.70;50.90;;;;;;4992404;28;20657;-65
2022/07/14 12:13:51;;;;;;;3.70;3.40;;;32.80;51.00;;;;;;4975313;28;21189;-62
2022/07/14 12:16:19;;;;;;;7.93;4.10;;;32.90;50.80;;;;;;4992641;28;20614;-65
2022/07/14 12:18:47;;;;;;;4.77;4.37;;;32.90;51.10;;;;;;4991341;28;20717;-64
2022/07/14 12:21:14;;;;;;;4.60;4.10;;;32.60;51.30;;;;;;4992636;28;20677;-64
2022/07/14 12:23:56;;;;;;;4.67;4.27;;;32.30;51.40;;;;;;4976497;28;20591;-65
2022/07/14 12:26:25;;;;;;;4.33;4.03;;;32.60;51.40;;;;;;4992050;28;21170;-65
2022/07/14 12:28:55;;;;;;;5.30;4.80;;;32.80;51.10;;;;;;4991682;28;20713;-64
2022/07/14 12:31:22;;;;;;;6.77;4.40;;;32.90;51.00;;;;;;4991918;28;20750;-64
2022/07/14 12:33:53;;;;;;;3.77;3.57;;;32.80;50.90;;;;;;4991578;28;20637;-64
2022/07/14 12:36:26;;;;;;;4.10;3.90;;;32.90;50.90;;;;;;4992354;28;20712;-65
2022/07/14 12:38:54;;;;;;;4.67;4.27;;;33.10;50.60;;;;;;4991056;28;20629;-65
2022/07/14 12:41:25;;;;;;;6.77;3.97;;;33.00;50.80;;;;;;4990215;28;20662;-65
2022/07/14 12:43:52;;;;;;;9.37;4.30;;;32.80;51.40;;;;;;4992107;28;20623;-64
2022/07/14 12:46:22;;;;;;;4.27;3.83;;;32.90;51.70;;;;;;4978690;28;20730;-64
2022/07/14 12:48:50;;;;;;;5.20;4.30;;;32.80;51.40;;;;;;4989821;28;20611;-64
2022/07/14 12:51:21;;;;;;;4.70;4.30;;;32.60;51.40;;;;;;4991637;28;20627;-64
2022/07/14 12:53:58;;;;;;;4.33;3.97;;;32.50;51.70;;;;;;4991727;28;20615;-65
2022/07/14 12:56:27;;;;;;;4.63;4.33;;;32.50;51.90;;;;;;4991755;28;20634;-65
2022/07/14 12:58:56;;;;;;;4.93;4.43;;;32.50;51.90;;;;;;4989860;28;20627;-64
2022/07/14 13:01:24;;;;;;;5.27;4.77;;;32.30;52.10;;;;;;4991669;28;20666;-63
2022/07/14 13:04:00;;;;;;;4.37;4.07;;;32.30;52.20;;;;;;4990764;28;21058;-66
2022/07/14 13:06:41;;;;;;;4.43;4.13;;;32.30;52.20;;;;;;4991389;28;21278;-65
2022/07/14 13:09:16;;;;;;;4.53;4.13;;;32.20;52.10;;;;;;4990988;28;20735;-65
2022/07/14 13:11:45;;;;;;;5.33;4.80;;;32.00;52.80;;;;;;4990812;28;20721;-65
2022/07/14 13:14:13;;;;;;;4.70;4.30;;;31.80;53.30;;;;;;4973939;28;20627;-65
2022/07/14 13:16:48;;;;;;;4.57;4.17;;;31.70;53.70;;;;;;4991617;28;20645;-64
2022/07/14 13:19:20;;;;;;;5.00;4.60;;;31.60;54.10;;;;;;4989888;28;20704;-65
2022/07/14 13:21:58;;;;;;;5.13;4.63;;;31.30;53.90;;;;;;4990435;28;20666;-64
2022/07/14 13:24:45;;;;;;;4.90;4.50;;;31.20;54.70;;;;;;4990239;28;20623;-65